HGR weather

Hagerstown Regional Richard A Henson Field
Hagerstown, Maryland, United States

Public forecast

Using degrees Fahrenheit for public forecast. Weather courtesy of forecast.io.

Current aviation weather report (METAR) for Hagerstown Regional Richard A Henson Field

Retrieved 2019/10/15 09:53 UTC (40 minutes ago):

KHGR 150953Z AUTO 00000KT 10SM CLR 08/03 A3015 RMK AO2 SLP220 T00830028

Closest aviation forecast (TAF) to Hagerstown Regional Richard A Henson Field

Closest forecast is Eastern WV Regional Airport/Shepherd Field, 21.8 nm (40.4 km) SSW. Retrieved 2019/10/15 06:22 UTC (4 hours ago):

TAF KMRB 150520Z 1506/1606 VRB03KT P6SM SKC FM150800 00000KT 6SM BR SKC FM151200 00000KT P6SM SKC FM151800 15004KT P6SM SKC